createdAt,value
2024-01-06T00:07:36.743Z,99219.91
2024-01-06T00:17:39.000Z,99228.13
2024-01-06T00:27:41.360Z,99225.63
2024-01-06T00:37:43.325Z,99240.38
2024-01-06T00:47:45.468Z,99252.81
2024-01-06T00:57:47.730Z,99259.69
2024-01-06T01:07:49.905Z,99249.97
2024-01-06T01:17:52.014Z,99249.63
2024-01-06T01:27:54.087Z,99228.84
2024-01-06T01:37:56.317Z,99233.22
2024-01-06T01:47:58.775Z,99241.78
2024-01-06T01:58:01.031Z,99234.41
2024-01-06T02:08:03.188Z,99223.66
2024-01-06T02:18:05.557Z,99226.88
2024-01-06T02:28:07.529Z,99227.34
2024-01-06T02:38:10.746Z,99220.34
2024-01-06T02:48:13.019Z,99185.75
2024-01-06T02:58:15.054Z,99144.47
2024-01-06T03:08:17.848Z,99139.78
2024-01-06T03:18:20.226Z,99159.41
2024-01-06T03:28:22.399Z,99117.47
2024-01-06T03:38:24.506Z,99103.72
2024-01-06T03:48:26.812Z,99094.31
2024-01-06T03:58:29.018Z,99091.78
2024-01-06T04:08:31.391Z,99088.59
2024-01-06T04:18:33.667Z,99073.50
2024-01-06T04:28:35.776Z,99067.97
2024-01-06T04:38:37.791Z,99045.66
2024-01-06T04:48:42.362Z,99038.44
2024-01-06T04:58:44.748Z,99036.41
2024-01-06T05:08:46.982Z,99028.53
2024-01-06T05:18:49.158Z,99030.88
2024-01-06T05:28:51.513Z,99029.19
2024-01-06T05:38:53.861Z,99019.63
2024-01-06T05:48:57.531Z,99026.16
2024-01-06T05:58:59.817Z,99035.06
2024-01-06T06:09:01.978Z,99030.53
2024-01-06T06:19:05.141Z,99016.78
2024-01-06T06:29:07.533Z,99011.06
2024-01-06T06:39:10.016Z,99011.91
2024-01-06T06:49:12.632Z,99006.53
2024-01-06T06:59:15.602Z,98995.28
2024-01-06T07:09:18.638Z,99004.84
2024-01-06T07:19:22.204Z,98986.25
2024-01-06T07:29:24.452Z,99012.06
2024-01-06T07:39:26.765Z,99007.72
2024-01-06T07:49:29.094Z,99019.13
2024-01-06T07:59:31.342Z,99019.97
2024-01-06T08:09:33.372Z,99016.59
2024-01-06T08:19:37.402Z,99021.81
2024-01-06T08:29:40.314Z,98998.16
2024-01-06T08:39:42.862Z,99018.44
2024-01-06T08:49:45.085Z,99012.41
2024-01-06T08:59:47.150Z,99009.56
2024-01-06T09:09:49.348Z,99011.41
2024-01-06T09:19:51.700Z,99005.38
2024-01-06T09:29:53.793Z,98998.66
2024-01-06T09:39:56.021Z,98989.56
2024-01-06T09:50:02.082Z,98985.22
2024-01-06T10:00:05.743Z,98959.38
2024-01-06T10:10:09.022Z,98964.19
2024-01-06T10:20:12.504Z,98955.13
2024-01-06T10:30:19.793Z,98919.94
2024-01-06T10:40:21.965Z,98926.09
2024-01-06T10:50:24.995Z,98916.53
2024-01-06T11:00:27.309Z,98900.78
2024-01-06T11:10:31.169Z,98883.00
2024-01-06T11:20:33.232Z,98879.13
2024-01-06T11:30:38.071Z,98856.16
2024-01-06T11:40:40.458Z,98848.09
2024-01-06T11:50:42.931Z,98854.31
2024-01-06T12:00:48.440Z,98845.75
2024-01-06T12:10:51.457Z,98834.00
2024-01-06T12:20:54.672Z,98844.56
2024-01-06T12:30:57.194Z,98819.25
2024-01-06T12:40:59.303Z,98812.03
2024-01-06T12:51:01.413Z,98815.56
2024-01-06T13:01:04.334Z,98817.41
2024-01-06T13:11:06.951Z,98812.22
2024-01-06T13:21:10.104Z,98802.81
2024-01-06T13:31:12.488Z,98799.97
2024-01-06T13:41:14.921Z,98788.56
2024-01-06T13:51:17.852Z,98792.75
2024-01-06T14:01:20.049Z,98786.53
2024-01-06T14:11:22.236Z,98786.88
2024-01-06T14:21:24.890Z,98788.75
2024-01-06T14:31:28.686Z,98790.59
2024-01-06T14:41:31.629Z,98796.31
2024-01-06T14:51:33.942Z,98807.69
2024-01-06T15:01:36.207Z,98801.66
2024-01-06T15:11:38.601Z,98794.97
2024-01-06T15:21:40.914Z,98798.16
2024-01-06T15:31:43.258Z,98789.59
2024-01-06T15:41:45.476Z,98798.31
2024-01-06T15:51:47.887Z,98801.00
2024-01-06T16:01:50.416Z,98788.59
2024-01-06T16:11:53.779Z,98789.59
2024-01-06T16:22:07.266Z,98787.47
2024-01-06T16:32:17.028Z,98787.09
2024-01-06T16:42:19.491Z,98774.88
2024-01-06T16:52:21.637Z,98765.81
2024-01-06T17:02:24.191Z,98780.25
2024-01-06T17:12:26.949Z,98766.84
2024-01-06T17:22:29.113Z,98766.34
2024-01-06T17:32:31.729Z,98774.56
2024-01-06T17:42:35.306Z,98764.03
2024-01-06T17:52:37.720Z,98795.03
2024-01-06T18:02:40.014Z,98798.06
2024-01-06T18:12:42.912Z,98795.38
2024-01-06T18:22:45.304Z,98783.97
2024-01-06T18:32:47.609Z,98787.31
2024-01-06T18:42:49.983Z,98790.19
2024-01-06T18:52:53.023Z,98798.41
2024-01-06T19:02:55.395Z,98776.63
2024-01-06T19:12:57.514Z,98778.97
2024-01-06T19:23:06.836Z,98770.72
2024-01-06T19:33:12.125Z,98749.59
2024-01-06T19:43:17.167Z,98741.56
2024-01-06T19:53:20.117Z,98716.91
2024-01-06T20:03:22.254Z,98706.84
2024-01-06T20:13:24.499Z,98695.44
2024-01-06T20:23:27.072Z,98675.16
2024-01-06T20:33:34.853Z,98670.81
2024-01-06T20:43:38.785Z,98668.63
2024-01-06T20:53:41.094Z,98661.09
2024-01-06T21:03:43.444Z,98658.22
2024-01-06T21:13:45.788Z,98658.22
2024-01-06T21:23:49.449Z,98652.88
2024-01-06T21:33:51.906Z,98635.09
2024-01-06T21:43:54.185Z,98635.28
2024-01-06T21:53:57.670Z,98632.13
2024-01-06T22:04:01.361Z,98616.03
2024-01-06T22:14:03.483Z,98614.38
2024-01-06T22:24:06.375Z,98601.97
2024-01-06T22:34:08.775Z,98582.69
2024-01-06T22:44:11.074Z,98584.84
2024-01-06T22:54:13.228Z,98572.63
2024-01-06T23:04:17.419Z,98555.34
2024-01-06T23:14:19.691Z,98550.31
2024-01-06T23:24:21.974Z,98542.59
2024-01-06T23:34:34.787Z,98539.72
2024-01-06T23:44:42.774Z,98533.53
2024-01-06T23:54:44.895Z,98516.78
